sensor_id;sensor_type;location;lat;lon;timestamp;P1;durP1;ratioP1;P2;durP2;ratioP2
48241;SDS011;34041;51.812;4.622;2022-08-20T00:01:54;4.25;;;2.20;;
48241;SDS011;34041;51.812;4.622;2022-08-20T00:04:54;2.83;;;1.83;;
48241;SDS011;34041;51.812;4.622;2022-08-20T00:07:54;3.90;;;1.70;;
48241;SDS011;34041;51.812;4.622;2022-08-20T00:10:55;3.13;;;1.65;;
48241;SDS011;34041;51.812;4.622;2022-08-20T00:13:57;3.22;;;2.47;;
48241;SDS011;34041;51.812;4.622;2022-08-20T00:16:57;3.42;;;1.95;;
48241;SDS011;34041;51.812;4.622;2022-08-20T00:19:58;4.18;;;2.25;;
48241;SDS011;34041;51.812;4.622;2022-08-20T00:22:58;3.10;;;1.87;;
48241;SDS011;34041;51.812;4.622;2022-08-20T00:25:58;4.73;;;1.70;;
48241;SDS011;34041;51.812;4.622;2022-08-20T00:28:59;4.57;;;2.40;;
48241;SDS011;34041;51.812;4.622;2022-08-20T00:31:59;4.00;;;2.45;;
48241;SDS011;34041;51.812;4.622;2022-08-20T00:34:59;4.43;;;2.13;;
48241;SDS011;34041;51.812;4.622;2022-08-20T00:38:00;5.23;;;2.83;;
48241;SDS011;34041;51.812;4.622;2022-08-20T00:41:00;3.60;;;1.83;;
48241;SDS011;34041;51.812;4.622;2022-08-20T00:44:18;4.30;;;1.73;;
48241;SDS011;34041;51.812;4.622;2022-08-20T00:47:18;3.90;;;2.42;;
48241;SDS011;34041;51.812;4.622;2022-08-20T00:50:20;2.30;;;1.77;;
48241;SDS011;34041;51.812;4.622;2022-08-20T00:53:21;4.93;;;2.10;;
48241;SDS011;34041;51.812;4.622;2022-08-20T00:56:22;3.33;;;1.60;;
48241;SDS011;34041;51.812;4.622;2022-08-20T00:59:25;3.40;;;2.10;;
48241;SDS011;34041;51.812;4.622;2022-08-20T01:02:26;4.93;;;2.10;;
48241;SDS011;34041;51.812;4.622;2022-08-20T01:05:28;4.55;;;1.77;;
48241;SDS011;34041;51.812;4.622;2022-08-20T01:08:28;4.55;;;2.60;;
48241;SDS011;34041;51.812;4.622;2022-08-20T01:11:28;4.28;;;2.25;;
48241;SDS011;34041;51.812;4.622;2022-08-20T01:14:35;2.92;;;1.63;;
48241;SDS011;34041;51.812;4.622;2022-08-20T01:17:35;3.13;;;2.20;;
48241;SDS011;34041;51.812;4.622;2022-08-20T01:20:39;3.42;;;2.03;;
48241;SDS011;34041;51.812;4.622;2022-08-20T01:23:58;3.65;;;1.77;;
48241;SDS011;34041;51.812;4.622;2022-08-20T01:27:02;3.85;;;2.28;;
48241;SDS011;34041;51.812;4.622;2022-08-20T01:30:05;3.75;;;1.90;;
48241;SDS011;34041;51.812;4.622;2022-08-20T01:33:05;2.67;;;2.00;;
48241;SDS011;34041;51.812;4.622;2022-08-20T01:36:06;2.22;;;1.63;;
48241;SDS011;34041;51.812;4.622;2022-08-20T01:39:08;2.60;;;1.38;;
48241;SDS011;34041;51.812;4.622;2022-08-20T01:42:19;4.97;;;1.52;;
48241;SDS011;34041;51.812;4.622;2022-08-20T01:45:22;2.60;;;1.77;;
48241;SDS011;34041;51.812;4.622;2022-08-20T01:48:23;4.53;;;1.80;;
48241;SDS011;34041;51.812;4.622;2022-08-20T01:51:25;4.63;;;1.53;;
48241;SDS011;34041;51.812;4.622;2022-08-20T01:54:26;3.70;;;2.03;;
48241;SDS011;34041;51.812;4.622;2022-08-20T01:57:26;3.58;;;1.77;;
48241;SDS011;34041;51.812;4.622;2022-08-20T02:00:28;5.32;;;2.60;;
48241;SDS011;34041;51.812;4.622;2022-08-20T02:03:28;5.68;;;2.60;;
48241;SDS011;34041;51.812;4.622;2022-08-20T02:06:29;3.17;;;1.83;;
48241;SDS011;34041;51.812;4.622;2022-08-20T02:09:34;3.55;;;2.40;;
48241;SDS011;34041;51.812;4.622;2022-08-20T02:12:35;6.70;;;3.20;;
48241;SDS011;34041;51.812;4.622;2022-08-20T02:15:36;6.47;;;3.13;;
48241;SDS011;34041;51.812;4.622;2022-08-20T02:18:36;4.63;;;2.95;;
48241;SDS011;34041;51.812;4.622;2022-08-20T02:21:37;4.23;;;3.67;;
48241;SDS011;34041;51.812;4.622;2022-08-20T02:24:38;7.22;;;3.42;;
48241;SDS011;34041;51.812;4.622;2022-08-20T02:27:39;5.45;;;3.25;;
48241;SDS011;34041;51.812;4.622;2022-08-20T02:30:42;4.97;;;3.40;;
48241;SDS011;34041;51.812;4.622;2022-08-20T02:33:43;6.80;;;3.25;;
48241;SDS011;34041;51.812;4.622;2022-08-20T02:36:44;7.82;;;4.20;;
48241;SDS011;34041;51.812;4.622;2022-08-20T02:39:47;4.43;;;3.37;;
48241;SDS011;34041;51.812;4.622;2022-08-20T02:42:48;9.67;;;4.10;;
48241;SDS011;34041;51.812;4.622;2022-08-20T02:45:48;6.77;;;4.00;;
48241;SDS011;34041;51.812;4.622;2022-08-20T02:48:48;7.40;;;4.18;;
48241;SDS011;34041;51.812;4.622;2022-08-20T02:51:48;4.90;;;3.03;;
48241;SDS011;34041;51.812;4.622;2022-08-20T02:54:48;7.13;;;3.83;;
48241;SDS011;34041;51.812;4.622;2022-08-20T02:57:52;4.72;;;3.05;;
48241;SDS011;34041;51.812;4.622;2022-08-20T03:00:53;7.72;;;4.15;;
48241;SDS011;34041;51.812;4.622;2022-08-20T03:03:53;5.97;;;3.45;;
48241;SDS011;34041;51.812;4.622;2022-08-20T03:06:56;6.95;;;3.88;;
48241;SDS011;34041;51.812;4.622;2022-08-20T03:09:57;6.43;;;3.60;;
48241;SDS011;34041;51.812;4.622;2022-08-20T03:12:58;7.43;;;3.92;;
48241;SDS011;34041;51.812;4.622;2022-08-20T03:16:00;7.53;;;3.17;;
48241;SDS011;34041;51.812;4.622;2022-08-20T03:19:01;5.60;;;3.75;;
48241;SDS011;34041;51.812;4.622;2022-08-20T03:22:02;6.10;;;3.75;;
48241;SDS011;34041;51.812;4.622;2022-08-20T03:25:02;9.85;;;4.57;;
48241;SDS011;34041;51.812;4.622;2022-08-20T03:28:03;6.13;;;3.72;;
48241;SDS011;34041;51.812;4.622;2022-08-20T03:31:03;6.45;;;3.55;;
48241;SDS011;34041;51.812;4.622;2022-08-20T03:34:03;5.30;;;3.28;;
48241;SDS011;34041;51.812;4.622;2022-08-20T03:37:04;5.43;;;3.70;;
48241;SDS011;34041;51.812;4.622;2022-08-20T03:40:07;4.78;;;3.30;;
48241;SDS011;34041;51.812;4.622;2022-08-20T03:43:08;7.40;;;3.83;;
48241;SDS011;34041;51.812;4.622;2022-08-20T03:46:09;7.07;;;4.28;;
48241;SDS011;34041;51.812;4.622;2022-08-20T03:49:09;4.73;;;3.23;;
48241;SDS011;34041;51.812;4.622;2022-08-20T03:52:09;9.10;;;4.17;;
48241;SDS011;34041;51.812;4.622;2022-08-20T03:55:10;7.43;;;3.65;;
48241;SDS011;34041;51.812;4.622;2022-08-20T03:58:10;5.82;;;3.38;;
48241;SDS011;34041;51.812;4.622;2022-08-20T04:01:10;7.00;;;3.58;;
48241;SDS011;34041;51.812;4.622;2022-08-20T04:04:11;5.38;;;3.78;;
48241;SDS011;34041;51.812;4.622;2022-08-20T04:07:29;4.72;;;3.05;;
48241;SDS011;34041;51.812;4.622;2022-08-20T04:10:30;5.72;;;3.55;;
48241;SDS011;34041;51.812;4.622;2022-08-20T04:13:30;6.63;;;3.60;;
48241;SDS011;34041;51.812;4.622;2022-08-20T04:16:31;5.78;;;3.42;;
48241;SDS011;34041;51.812;4.622;2022-08-20T04:19:32;6.15;;;3.40;;
48241;SDS011;34041;51.812;4.622;2022-08-20T04:22:32;5.45;;;3.25;;
48241;SDS011;34041;51.812;4.622;2022-08-20T04:25:33;4.67;;;3.67;;
48241;SDS011;34041;51.812;4.622;2022-08-20T04:28:33;5.38;;;3.20;;
48241;SDS011;34041;51.812;4.622;2022-08-20T04:31:34;6.72;;;2.83;;
48241;SDS011;34041;51.812;4.622;2022-08-20T04:34:34;4.13;;;3.17;;
48241;SDS011;34041;51.812;4.622;2022-08-20T04:37:34;5.40;;;3.43;;
48241;SDS011;34041;51.812;4.622;2022-08-20T04:40:35;5.28;;;3.33;;
48241;SDS011;34041;51.812;4.622;2022-08-20T04:43:56;6.70;;;3.28;;
48241;SDS011;34041;51.812;4.622;2022-08-20T04:46:57;5.20;;;3.67;;
48241;SDS011;34041;51.812;4.622;2022-08-20T04:49:57;4.57;;;3.50;;
48241;SDS011;34041;51.812;4.622;2022-08-20T04:53:02;5.93;;;3.60;;
48241;SDS011;34041;51.812;4.622;2022-08-20T04:56:02;3.85;;;3.08;;
48241;SDS011;34041;51.812;4.622;2022-08-20T04:59:03;7.20;;;3.55;;
48241;SDS011;34041;51.812;4.622;2022-08-20T05:02:04;7.63;;;3.13;;
48241;SDS011;34041;51.812;4.622;2022-08-20T05:05:05;6.70;;;3.20;;
48241;SDS011;34041;51.812;4.622;2022-08-20T05:08:07;4.78;;;2.75;;
48241;SDS011;34041;51.812;4.622;2022-08-20T05:11:07;4.65;;;3.55;;
48241;SDS011;34041;51.812;4.622;2022-08-20T05:14:08;6.78;;;3.47;;
48241;SDS011;34041;51.812;4.622;2022-08-20T05:17:08;8.10;;;3.23;;
48241;SDS011;34041;51.812;4.622;2022-08-20T05:20:10;5.03;;;2.80;;
48241;SDS011;34041;51.812;4.622;2022-08-20T05:23:12;3.60;;;3.05;;
48241;SDS011;34041;51.812;4.622;2022-08-20T05:26:13;5.47;;;3.25;;
48241;SDS011;34041;51.812;4.622;2022-08-20T05:29:14;4.82;;;2.53;;
48241;SDS011;34041;51.812;4.622;2022-08-20T05:32:15;4.43;;;3.10;;
48241;SDS011;34041;51.812;4.622;2022-08-20T05:35:15;5.75;;;2.88;;
48241;SDS011;34041;51.812;4.622;2022-08-20T05:38:16;6.22;;;3.15;;
48241;SDS011;34041;51.812;4.622;2022-08-20T05:41:17;7.68;;;3.20;;
48241;SDS011;34041;51.812;4.622;2022-08-20T05:44:18;7.70;;;3.63;;
48241;SDS011;34041;51.812;4.622;2022-08-20T05:47:18;9.20;;;3.20;;
48241;SDS011;34041;51.812;4.622;2022-08-20T05:50:18;5.23;;;2.87;;
48241;SDS011;34041;51.812;4.622;2022-08-20T05:53:19;5.43;;;3.13;;
48241;SDS011;34041;51.812;4.622;2022-08-20T05:56:19;4.57;;;2.78;;
48241;SDS011;34041;51.812;4.622;2022-08-20T05:59:19;5.25;;;3.55;;
48241;SDS011;34041;51.812;4.622;2022-08-20T06:02:21;6.32;;;3.08;;
48241;SDS011;34041;51.812;4.622;2022-08-20T06:05:40;5.32;;;2.72;;
48241;SDS011;34041;51.812;4.622;2022-08-20T06:08:40;9.10;;;3.17;;
48241;SDS011;34041;51.812;4.622;2022-08-20T06:11:40;6.97;;;3.60;;
48241;SDS011;34041;51.812;4.622;2022-08-20T06:14:41;6.20;;;3.40;;
48241;SDS011;34041;51.812;4.622;2022-08-20T06:17:41;12.27;;;3.78;;
48241;SDS011;34041;51.812;4.622;2022-08-20T06:20:41;6.25;;;3.30;;
48241;SDS011;34041;51.812;4.622;2022-08-20T06:23:42;8.27;;;2.72;;
48241;SDS011;34041;51.812;4.622;2022-08-20T06:26:42;4.13;;;2.60;;
48241;SDS011;34041;51.812;4.622;2022-08-20T06:29:42;7.03;;;2.40;;
48241;SDS011;34041;51.812;4.622;2022-08-20T06:32:43;7.45;;;2.80;;
48241;SDS011;34041;51.812;4.622;2022-08-20T06:35:43;7.03;;;2.85;;
48241;SDS011;34041;51.812;4.622;2022-08-20T06:38:43;6.75;;;2.60;;
48241;SDS011;34041;51.812;4.622;2022-08-20T06:41:45;4.05;;;1.83;;
48241;SDS011;34041;51.812;4.622;2022-08-20T06:44:46;7.00;;;2.10;;
48241;SDS011;34041;51.812;4.622;2022-08-20T06:47:48;9.85;;;2.55;;
48241;SDS011;34041;51.812;4.622;2022-08-20T06:50:48;4.25;;;2.20;;
48241;SDS011;34041;51.812;4.622;2022-08-20T06:53:49;4.65;;;2.33;;
48241;SDS011;34041;51.812;4.622;2022-08-20T06:56:49;6.63;;;2.60;;
48241;SDS011;34041;51.812;4.622;2022-08-20T06:59:53;7.03;;;2.53;;
48241;SDS011;34041;51.812;4.622;2022-08-20T07:02:54;4.00;;;1.70;;
48241;SDS011;34041;51.812;4.622;2022-08-20T07:05:54;7.20;;;2.05;;
48241;SDS011;34041;51.812;4.622;2022-08-20T07:08:54;7.67;;;2.47;;
48241;SDS011;34041;51.812;4.622;2022-08-20T07:11:55;5.72;;;2.22;;
48241;SDS011;34041;51.812;4.622;2022-08-20T07:14:55;5.68;;;2.15;;
48241;SDS011;34041;51.812;4.622;2022-08-20T07:17:57;5.22;;;2.47;;
48241;SDS011;34041;51.812;4.622;2022-08-20T07:20:57;6.85;;;2.25;;
48241;SDS011;34041;51.812;4.622;2022-08-20T07:23:58;9.25;;;2.25;;
48241;SDS011;34041;51.812;4.622;2022-08-20T07:26:58;5.50;;;2.37;;
48241;SDS011;34041;51.812;4.622;2022-08-20T07:29:59;6.28;;;2.30;;
48241;SDS011;34041;51.812;4.622;2022-08-20T07:33:17;4.18;;;1.77;;
48241;SDS011;34041;51.812;4.622;2022-08-20T07:36:18;7.22;;;2.33;;
48241;SDS011;34041;51.812;4.622;2022-08-20T07:39:18;8.40;;;2.35;;
48241;SDS011;34041;51.812;4.622;2022-08-20T07:42:20;6.10;;;2.00;;
48241;SDS011;34041;51.812;4.622;2022-08-20T07:45:20;6.93;;;2.03;;
48241;SDS011;34041;51.812;4.622;2022-08-20T07:48:21;7.40;;;2.28;;
48241;SDS011;34041;51.812;4.622;2022-08-20T07:51:23;4.75;;;2.47;;
48241;SDS011;34041;51.812;4.622;2022-08-20T07:54:23;7.40;;;2.03;;
48241;SDS011;34041;51.812;4.622;2022-08-20T07:57:23;9.57;;;2.60;;
48241;SDS011;34041;51.812;4.622;2022-08-20T08:00:24;12.87;;;3.27;;
48241;SDS011;34041;51.812;4.622;2022-08-20T08:03:24;8.88;;;2.67;;
48241;SDS011;34041;51.812;4.622;2022-08-20T08:06:26;7.25;;;3.15;;
48241;SDS011;34041;51.812;4.622;2022-08-20T08:09:26;11.55;;;3.13;;
48241;SDS011;34041;51.812;4.622;2022-08-20T08:12:31;6.40;;;2.30;;
48241;SDS011;34041;51.812;4.622;2022-08-20T08:15:32;6.00;;;2.22;;
48241;SDS011;34041;51.812;4.622;2022-08-20T08:18:40;6.55;;;1.98;;
48241;SDS011;34041;51.812;4.622;2022-08-20T08:21:42;5.75;;;2.17;;
48241;SDS011;34041;51.812;4.622;2022-08-20T08:24:43;8.68;;;2.67;;
48241;SDS011;34041;51.812;4.622;2022-08-20T08:27:46;6.95;;;2.33;;
48241;SDS011;34041;51.812;4.622;2022-08-20T08:30:47;7.90;;;2.88;;
48241;SDS011;34041;51.812;4.622;2022-08-20T08:33:48;5.13;;;2.60;;
48241;SDS011;34041;51.812;4.622;2022-08-20T08:36:48;5.83;;;1.70;;
48241;SDS011;34041;51.812;4.622;2022-08-20T08:39:49;5.50;;;1.90;;
48241;SDS011;34041;51.812;4.622;2022-08-20T08:42:51;6.93;;;2.00;;
48241;SDS011;34041;51.812;4.622;2022-08-20T08:46:02;7.22;;;2.45;;
48241;SDS011;34041;51.812;4.622;2022-08-20T08:49:02;4.70;;;1.90;;
48241;SDS011;34041;51.812;4.622;2022-08-20T08:52:05;7.28;;;2.33;;
48241;SDS011;34041;51.812;4.622;2022-08-20T08:55:09;4.82;;;1.63;;
48241;SDS011;34041;51.812;4.622;2022-08-20T08:58:09;7.68;;;1.60;;
48241;SDS011;34041;51.812;4.622;2022-08-20T09:01:10;3.57;;;1.60;;
48241;SDS011;34041;51.812;4.622;2022-08-20T09:04:12;6.65;;;1.90;;
48241;SDS011;34041;51.812;4.622;2022-08-20T09:07:13;4.68;;;1.77;;
48241;SDS011;34041;51.812;4.622;2022-08-20T09:10:15;6.13;;;2.00;;
48241;SDS011;34041;51.812;4.622;2022-08-20T09:13:16;6.13;;;2.42;;
48241;SDS011;34041;51.812;4.622;2022-08-20T09:16:16;5.60;;;1.93;;
48241;SDS011;34041;51.812;4.622;2022-08-20T09:19:16;6.75;;;2.45;;
48241;SDS011;34041;51.812;4.622;2022-08-20T09:22:18;4.00;;;1.33;;
48241;SDS011;34041;51.812;4.622;2022-08-20T09:25:18;6.72;;;2.38;;
48241;SDS011;34041;51.812;4.622;2022-08-20T09:28:19;7.25;;;2.30;;
48241;SDS011;34041;51.812;4.622;2022-08-20T09:31:19;11.63;;;2.80;;
48241;SDS011;34041;51.812;4.622;2022-08-20T09:34:19;6.27;;;1.67;;
48241;SDS011;34041;51.812;4.622;2022-08-20T09:37:19;5.83;;;1.97;;
48241;SDS011;34041;51.812;4.622;2022-08-20T09:40:20;6.30;;;1.85;;
48241;SDS011;34041;51.812;4.622;2022-08-20T09:43:20;5.65;;;1.98;;
48241;SDS011;34041;51.812;4.622;2022-08-20T09:46:20;9.10;;;1.83;;
48241;SDS011;34041;51.812;4.622;2022-08-20T09:49:21;4.43;;;1.42;;
48241;SDS011;34041;51.812;4.622;2022-08-20T09:52:23;6.50;;;1.90;;
48241;SDS011;34041;51.812;4.622;2022-08-20T09:55:37;11.05;;;2.58;;
48241;SDS011;34041;51.812;4.622;2022-08-20T09:58:50;4.78;;;1.60;;
48241;SDS011;34041;51.812;4.622;2022-08-20T10:01:52;6.78;;;1.95;;
48241;SDS011;34041;51.812;4.622;2022-08-20T10:04:52;9.07;;;2.17;;
48241;SDS011;34041;51.812;4.622;2022-08-20T10:07:52;4.63;;;1.30;;
48241;SDS011;34041;51.812;4.622;2022-08-20T10:10:52;6.97;;;1.95;;
48241;SDS011;34041;51.812;4.622;2022-08-20T10:13:53;5.80;;;1.53;;
48241;SDS011;34041;51.812;4.622;2022-08-20T10:16:54;4.83;;;1.70;;
48241;SDS011;34041;51.812;4.622;2022-08-20T10:19:54;8.82;;;2.38;;
48241;SDS011;34041;51.812;4.622;2022-08-20T10:22:54;4.90;;;1.80;;
48241;SDS011;34041;51.812;4.622;2022-08-20T10:25:54;4.70;;;1.40;;
48241;SDS011;34041;51.812;4.622;2022-08-20T10:28:54;4.70;;;1.50;;
48241;SDS011;34041;51.812;4.622;2022-08-20T10:31:55;4.50;;;1.47;;
48241;SDS011;34041;51.812;4.622;2022-08-20T10:34:58;7.88;;;1.88;;
48241;SDS011;34041;51.812;4.622;2022-08-20T10:37:59;5.05;;;1.60;;
48241;SDS011;34041;51.812;4.622;2022-08-20T10:40:59;8.63;;;2.20;;
48241;SDS011;34041;51.812;4.622;2022-08-20T10:43:59;4.63;;;1.58;;
48241;SDS011;34041;51.812;4.622;2022-08-20T10:47:11;6.53;;;2.30;;
48241;SDS011;34041;51.812;4.622;2022-08-20T10:50:14;5.40;;;2.13;;
48241;SDS011;34041;51.812;4.622;2022-08-20T10:53:15;4.55;;;1.35;;
48241;SDS011;34041;51.812;4.622;2022-08-20T10:56:15;6.40;;;1.80;;
48241;SDS011;34041;51.812;4.622;2022-08-20T10:59:15;4.27;;;1.87;;
48241;SDS011;34041;51.812;4.622;2022-08-20T11:02:16;5.00;;;1.73;;
48241;SDS011;34041;51.812;4.622;2022-08-20T11:05:16;6.88;;;1.75;;
48241;SDS011;34041;51.812;4.622;2022-08-20T11:08:16;4.65;;;1.40;;
48241;SDS011;34041;51.812;4.622;2022-08-20T11:11:17;4.97;;;1.50;;
48241;SDS011;34041;51.812;4.622;2022-08-20T11:14:17;6.60;;;1.77;;
48241;SDS011;34041;51.812;4.622;2022-08-20T11:17:18;12.45;;;2.08;;
48241;SDS011;34041;51.812;4.622;2022-08-20T11:20:19;6.30;;;1.88;;
48241;SDS011;34041;51.812;4.622;2022-08-20T11:23:20;4.65;;;2.17;;
48241;SDS011;34041;51.812;4.622;2022-08-20T11:26:21;6.50;;;1.55;;
48241;SDS011;34041;51.812;4.622;2022-08-20T11:29:22;5.32;;;2.33;;
48241;SDS011;34041;51.812;4.622;2022-08-20T11:32:24;5.85;;;1.70;;
48241;SDS011;34041;51.812;4.622;2022-08-20T11:35:26;4.38;;;1.60;;
48241;SDS011;34041;51.812;4.622;2022-08-20T11:38:26;5.75;;;2.47;;
48241;SDS011;34041;51.812;4.622;2022-08-20T11:41:26;5.87;;;1.87;;
48241;SDS011;34041;51.812;4.622;2022-08-20T11:44:26;7.97;;;2.40;;
48241;SDS011;34041;51.812;4.622;2022-08-20T11:47:27;5.85;;;2.38;;
48241;SDS011;34041;51.812;4.622;2022-08-20T11:50:28;8.30;;;2.35;;
48241;SDS011;34041;51.812;4.622;2022-08-20T11:53:28;5.70;;;1.70;;
48241;SDS011;34041;51.812;4.622;2022-08-20T11:56:28;6.40;;;2.40;;
48241;SDS011;34041;51.812;4.622;2022-08-20T11:59:28;14.75;;;3.38;;
48241;SDS011;34041;51.812;4.622;2022-08-20T12:02:29;8.43;;;2.37;;
48241;SDS011;34041;51.812;4.622;2022-08-20T12:05:29;8.10;;;1.98;;
48241;SDS011;34041;51.812;4.622;2022-08-20T12:08:30;6.60;;;2.57;;
48241;SDS011;34041;51.812;4.622;2022-08-20T12:11:30;8.57;;;2.17;;
48241;SDS011;34041;51.812;4.622;2022-08-20T12:14:30;4.53;;;2.17;;
48241;SDS011;34041;51.812;4.622;2022-08-20T12:17:31;8.25;;;1.92;;
48241;SDS011;34041;51.812;4.622;2022-08-20T12:20:32;6.13;;;2.80;;
48241;SDS011;34041;51.812;4.622;2022-08-20T12:23:32;5.35;;;2.13;;
48241;SDS011;34041;51.812;4.622;2022-08-20T12:26:33;9.23;;;2.58;;
48241;SDS011;34041;51.812;4.622;2022-08-20T12:29:33;6.67;;;1.60;;
48241;SDS011;34041;51.812;4.622;2022-08-20T12:32:33;9.03;;;1.67;;
48241;SDS011;34041;51.812;4.622;2022-08-20T12:35:34;6.68;;;1.52;;
48241;SDS011;34041;51.812;4.622;2022-08-20T12:38:34;5.90;;;1.73;;
48241;SDS011;34041;51.812;4.622;2022-08-20T12:41:34;6.73;;;1.63;;
48241;SDS011;34041;51.812;4.622;2022-08-20T12:44:35;3.70;;;1.97;;
48241;SDS011;34041;51.812;4.622;2022-08-20T12:47:39;5.40;;;2.00;;
48241;SDS011;34041;51.812;4.622;2022-08-20T12:53:40;6.97;;;1.63;;
48241;SDS011;34041;51.812;4.622;2022-08-20T12:56:40;9.30;;;2.03;;
48241;SDS011;34041;51.812;4.622;2022-08-20T12:59:40;4.77;;;1.73;;
48241;SDS011;34041;51.812;4.622;2022-08-20T13:02:40;5.85;;;2.33;;
48241;SDS011;34041;51.812;4.622;2022-08-20T13:05:41;5.60;;;1.83;;
48241;SDS011;34041;51.812;4.622;2022-08-20T13:08:41;9.52;;;2.40;;
48241;SDS011;34041;51.812;4.622;2022-08-20T13:11:41;6.27;;;2.20;;
48241;SDS011;34041;51.812;4.622;2022-08-20T13:14:42;5.73;;;1.70;;
48241;SDS011;34041;51.812;4.622;2022-08-20T13:17:42;5.05;;;2.05;;
48241;SDS011;34041;51.812;4.622;2022-08-20T13:20:42;7.07;;;2.00;;
48241;SDS011;34041;51.812;4.622;2022-08-20T13:23:42;5.17;;;1.87;;
48241;SDS011;34041;51.812;4.622;2022-08-20T13:26:43;4.93;;;2.73;;
48241;SDS011;34041;51.812;4.622;2022-08-20T13:29:54;9.52;;;3.05;;
48241;SDS011;34041;51.812;4.622;2022-08-20T13:32:54;5.18;;;2.38;;
48241;SDS011;34041;51.812;4.622;2022-08-20T13:35:55;5.67;;;1.80;;
48241;SDS011;34041;51.812;4.622;2022-08-20T13:38:55;8.18;;;2.17;;
48241;SDS011;34041;51.812;4.622;2022-08-20T13:41:55;4.93;;;1.50;;
48241;SDS011;34041;51.812;4.622;2022-08-20T13:44:56;3.90;;;1.80;;
48241;SDS011;34041;51.812;4.622;2022-08-20T13:47:56;5.57;;;2.15;;
48241;SDS011;34041;51.812;4.622;2022-08-20T13:50:56;5.93;;;1.83;;
48241;SDS011;34041;51.812;4.622;2022-08-20T13:53:56;5.70;;;1.97;;
48241;SDS011;34041;51.812;4.622;2022-08-20T13:57:06;4.30;;;2.00;;
48241;SDS011;34041;51.812;4.622;2022-08-20T14:00:09;7.00;;;1.65;;
48241;SDS011;34041;51.812;4.622;2022-08-20T14:03:12;3.35;;;1.30;;
48241;SDS011;34041;51.812;4.622;2022-08-20T14:06:12;6.53;;;2.07;;
48241;SDS011;34041;51.812;4.622;2022-08-20T14:09:13;7.60;;;2.33;;
48241;SDS011;34041;51.812;4.622;2022-08-20T14:12:13;6.73;;;2.30;;
48241;SDS011;34041;51.812;4.622;2022-08-20T14:15:14;6.35;;;2.03;;
48241;SDS011;34041;51.812;4.622;2022-08-20T14:18:14;9.82;;;1.73;;
48241;SDS011;34041;51.812;4.622;2022-08-20T14:21:14;5.07;;;2.15;;
48241;SDS011;34041;51.812;4.622;2022-08-20T14:24:15;4.13;;;2.03;;
48241;SDS011;34041;51.812;4.622;2022-08-20T14:27:16;5.00;;;1.53;;
48241;SDS011;34041;51.812;4.622;2022-08-20T14:30:19;7.80;;;1.55;;
48241;SDS011;34041;51.812;4.622;2022-08-20T14:33:19;3.53;;;1.48;;
48241;SDS011;34041;51.812;4.622;2022-08-20T14:36:20;4.70;;;1.58;;
48241;SDS011;34041;51.812;4.622;2022-08-20T14:39:21;9.23;;;2.17;;
48241;SDS011;34041;51.812;4.622;2022-08-20T14:42:22;5.28;;;2.78;;
48241;SDS011;34041;51.812;4.622;2022-08-20T14:45:23;4.22;;;1.75;;
48241;SDS011;34041;51.812;4.622;2022-08-20T14:48:23;7.47;;;1.83;;
48241;SDS011;34041;51.812;4.622;2022-08-20T14:51:26;4.25;;;1.10;;
48241;SDS011;34041;51.812;4.622;2022-08-20T14:54:27;5.23;;;1.50;;
48241;SDS011;34041;51.812;4.622;2022-08-20T14:57:27;5.17;;;1.73;;
48241;SDS011;34041;51.812;4.622;2022-08-20T15:00:29;4.60;;;1.40;;
48241;SDS011;34041;51.812;4.622;2022-08-20T15:03:29;3.15;;;1.60;;
48241;SDS011;34041;51.812;4.622;2022-08-20T15:06:29;4.85;;;1.48;;
48241;SDS011;34041;51.812;4.622;2022-08-20T15:09:33;4.88;;;2.10;;
48241;SDS011;34041;51.812;4.622;2022-08-20T15:12:34;5.10;;;1.88;;
48241;SDS011;34041;51.812;4.622;2022-08-20T15:15:34;3.47;;;1.17;;
48241;SDS011;34041;51.812;4.622;2022-08-20T15:18:34;4.50;;;1.30;;
48241;SDS011;34041;51.812;4.622;2022-08-20T15:21:35;4.60;;;1.20;;
48241;SDS011;34041;51.812;4.622;2022-08-20T15:24:35;3.22;;;0.90;;
48241;SDS011;34041;51.812;4.622;2022-08-20T15:27:35;5.30;;;1.53;;
48241;SDS011;34041;51.812;4.622;2022-08-20T15:30:37;5.20;;;2.17;;
48241;SDS011;34041;51.812;4.622;2022-08-20T15:33:38;5.28;;;1.38;;
48241;SDS011;34041;51.812;4.622;2022-08-20T15:36:39;3.58;;;1.23;;
48241;SDS011;34041;51.812;4.622;2022-08-20T15:39:39;6.10;;;1.50;;
48241;SDS011;34041;51.812;4.622;2022-08-20T15:42:40;3.88;;;1.20;;
48241;SDS011;34041;51.812;4.622;2022-08-20T15:45:40;5.53;;;1.57;;
48241;SDS011;34041;51.812;4.622;2022-08-20T15:48:41;5.10;;;1.83;;
48241;SDS011;34041;51.812;4.622;2022-08-20T15:51:44;3.30;;;1.20;;
48241;SDS011;34041;51.812;4.622;2022-08-20T15:54:45;3.45;;;1.52;;
48241;SDS011;34041;51.812;4.622;2022-08-20T15:57:52;4.55;;;1.17;;
48241;SDS011;34041;51.812;4.622;2022-08-20T16:01:02;3.85;;;1.20;;
48241;SDS011;34041;51.812;4.622;2022-08-20T16:04:14;3.75;;;1.35;;
48241;SDS011;34041;51.812;4.622;2022-08-20T16:07:28;2.72;;;1.30;;
48241;SDS011;34041;51.812;4.622;2022-08-20T16:13:45;3.30;;;1.30;;
48241;SDS011;34041;51.812;4.622;2022-08-20T16:16:47;4.03;;;1.27;;
48241;SDS011;34041;51.812;4.622;2022-08-20T16:20:05;9.95;;;1.67;;
48241;SDS011;34041;51.812;4.622;2022-08-20T16:23:14;2.72;;;1.08;;
48241;SDS011;34041;51.812;4.622;2022-08-20T16:26:27;3.45;;;1.10;;
48241;SDS011;34041;51.812;4.622;2022-08-20T16:29:35;4.75;;;1.33;;
48241;SDS011;34041;51.812;4.622;2022-08-20T16:35:40;4.67;;;1.77;;
48241;SDS011;34041;51.812;4.622;2022-08-20T16:38:47;2.13;;;0.93;;
48241;SDS011;34041;51.812;4.622;2022-08-20T16:41:50;4.88;;;2.28;;
48241;SDS011;34041;51.812;4.622;2022-08-20T16:44:51;7.47;;;3.67;;
48241;SDS011;34041;51.812;4.622;2022-08-20T16:47:53;6.20;;;2.17;;
48241;SDS011;34041;51.812;4.622;2022-08-20T16:50:57;3.83;;;1.83;;
48241;SDS011;34041;51.812;4.622;2022-08-20T16:53:57;3.88;;;1.67;;
48241;SDS011;34041;51.812;4.622;2022-08-20T16:57:02;5.80;;;1.73;;
48241;SDS011;34041;51.812;4.622;2022-08-20T17:00:11;4.07;;;1.20;;
48241;SDS011;34041;51.812;4.622;2022-08-20T17:03:28;2.75;;;1.20;;
48241;SDS011;34041;51.812;4.622;2022-08-20T17:06:34;5.17;;;1.90;;
48241;SDS011;34041;51.812;4.622;2022-08-20T17:09:36;3.17;;;1.30;;
48241;SDS011;34041;51.812;4.622;2022-08-20T17:12:40;7.00;;;1.65;;
48241;SDS011;34041;51.812;4.622;2022-08-20T17:15:41;4.70;;;1.33;;
48241;SDS011;34041;51.812;4.622;2022-08-20T17:18:51;3.47;;;1.48;;
48241;SDS011;34041;51.812;4.622;2022-08-20T17:21:52;4.47;;;1.42;;
48241;SDS011;34041;51.812;4.622;2022-08-20T17:24:53;4.95;;;1.85;;
48241;SDS011;34041;51.812;4.622;2022-08-20T17:27:53;4.10;;;2.00;;
48241;SDS011;34041;51.812;4.622;2022-08-20T17:30:54;3.05;;;1.55;;
48241;SDS011;34041;51.812;4.622;2022-08-20T17:33:54;4.97;;;1.52;;
48241;SDS011;34041;51.812;4.622;2022-08-20T17:36:56;2.57;;;1.30;;
48241;SDS011;34041;51.812;4.622;2022-08-20T17:40:08;5.32;;;1.65;;
48241;SDS011;34041;51.812;4.622;2022-08-20T17:43:20;5.32;;;2.03;;
48241;SDS011;34041;51.812;4.622;2022-08-20T17:46:22;3.60;;;1.85;;
48241;SDS011;34041;51.812;4.622;2022-08-20T17:49:45;4.35;;;1.75;;
48241;SDS011;34041;51.812;4.622;2022-08-20T17:52:46;3.25;;;1.92;;
48241;SDS011;34041;51.812;4.622;2022-08-20T17:55:50;3.65;;;1.85;;
48241;SDS011;34041;51.812;4.622;2022-08-20T17:59:05;5.13;;;1.88;;
48241;SDS011;34041;51.812;4.622;2022-08-20T18:05:08;3.83;;;1.55;;
48241;SDS011;34041;51.812;4.622;2022-08-20T18:08:18;3.83;;;1.80;;
48241;SDS011;34041;51.812;4.622;2022-08-20T18:14:40;3.03;;;1.40;;
48241;SDS011;34041;51.812;4.622;2022-08-20T18:24:14;2.90;;;1.67;;
48241;SDS011;34041;51.812;4.622;2022-08-20T18:27:16;3.22;;;1.48;;
48241;SDS011;34041;51.812;4.622;2022-08-20T18:30:20;3.72;;;1.55;;
48241;SDS011;34041;51.812;4.622;2022-08-20T18:33:28;7.70;;;1.90;;
48241;SDS011;34041;51.812;4.622;2022-08-20T18:36:28;2.75;;;1.50;;
48241;SDS011;34041;51.812;4.622;2022-08-20T18:39:39;4.60;;;1.85;;